Time;durP1;ratioP1;P1;durP2;ratioP2;P2;SDS_P1;SDS_P2;PMS_P1;PMS_P2;Temp;Humidity;BMP_temperature;BMP_pressure;BME280_temperature;BME280_humidity;BME280_pressure;Samples;Min_cycle;Max_cycle;Signal;HPM_P1;HPM_P2
2021/04/08 00:00:25;;;;;;;6.80;5.82;;;;;;;16.24;21.59;94343.94;5075508;28;20051;-43
2021/04/08 00:02:52;;;;;;;6.50;5.60;;;;;;;16.10;22.22;94350.56;5075749;28;20055;-43
2021/04/08 00:05:19;;;;;;;6.32;5.13;;;;;;;16.13;21.71;94342.00;5075736;28;20052;-43
2021/04/08 00:07:46;;;;;;;6.65;5.30;;;;;;;15.86;22.23;94346.66;5075269;28;20048;-43
2021/04/08 00:10:14;;;;;;;9.95;5.93;;;;;;;15.56;22.43;94343.22;5092585;28;20051;-43
2021/04/08 00:12:42;;;;;;;6.75;6.05;;;;;;;16.04;21.80;94332.28;5094577;28;20044;-43
2021/04/08 00:15:11;;;;;;;6.53;5.28;;;;;;;15.68;22.04;94345.22;5095216;28;20055;-44
2021/04/08 00:17:39;;;;;;;6.63;5.82;;;;;;;15.90;21.88;94341.53;5084126;28;20060;-43
2021/04/08 00:20:18;;;;;;;7.70;5.93;;;;;;;15.81;21.94;94344.22;5075448;28;20359;-44
2021/04/08 00:22:46;;;;;;;6.63;5.90;;;;;;;16.06;21.48;94336.47;5075240;28;20055;-44
2021/04/08 00:25:14;;;;;;;8.15;6.00;;;;;;;15.88;21.71;94338.47;5074823;28;20434;-44
2021/04/08 00:27:42;;;;;;;8.35;5.80;;;;;;;15.85;21.68;94342.47;5074179;28;20049;-43
2021/04/08 00:30:10;;;;;;;6.10;5.20;;;;;;;15.69;22.14;94337.00;5073654;28;20055;-43
2021/04/08 00:32:38;;;;;;;5.97;5.35;;;;;;;15.90;21.80;94341.53;5074889;28;20052;-43
2021/04/08 00:35:06;;;;;;;7.57;6.00;;;;;;;16.08;21.71;94329.00;5074783;28;20055;-46
2021/04/08 00:37:34;;;;;;;6.68;5.65;;;;;;;15.72;22.12;94341.63;5081064;22;20051;-43
2021/04/08 00:40:01;;;;;;;6.63;5.63;;;;;;;15.50;22.09;94338.47;5087061;28;20056;-45
2021/04/08 00:42:28;;;;;;;8.35;6.05;;;;;;;15.57;22.29;94344.00;5094012;28;20048;-44
2021/04/08 00:44:55;;;;;;;8.60;5.88;;;;;;;15.31;22.21;94331.72;5094549;28;20051;-44
2021/04/08 00:47:23;;;;;;;7.72;5.72;;;;;;;15.36;22.49;94331.56;5093894;28;20353;-43
2021/04/08 00:49:50;;;;;;;9.80;6.30;;;;;;;15.48;22.30;94330.09;5094863;28;20089;-43
2021/04/08 00:52:17;;;;;;;7.75;5.68;;;;;;;15.42;22.84;94325.00;5093614;28;20052;-43
2021/04/08 00:54:44;;;;;;;7.80;6.07;;;;;;;15.36;22.46;94341.31;5057270;28;20056;-43
2021/04/08 00:57:11;;;;;;;6.85;5.53;;;;;;;15.34;22.38;94343.47;5058346;28;20048;-47
2021/04/08 00:59:39;;;;;;;7.93;6.25;;;;;;;15.45;22.15;94338.63;5061559;28;20040;-43
2021/04/08 01:02:07;;;;;;;7.45;6.18;;;;;;;15.43;22.33;94334.47;5079390;28;20048;-43
2021/04/08 01:04:34;;;;;;;7.30;5.93;;;;;;;15.53;22.13;94341.22;5079186;28;20367;-43
2021/04/08 01:07:02;;;;;;;7.22;5.55;;;;;;;15.47;22.27;94339.88;5079045;28;20051;-51
2021/04/08 01:09:29;;;;;;;7.13;5.78;;;;;;;15.37;22.28;94341.00;5089219;28;20051;-42
2021/04/08 01:11:56;;;;;;;7.93;6.35;;;;;;;15.16;22.87;94344.63;5078889;28;20056;-44
2021/04/08 01:14:23;;;;;;;7.00;5.80;;;;;;;15.21;22.58;94336.56;5078790;28;20048;-43
2021/04/08 01:17:21;;;;;;;7.65;5.78;;;;;;;15.13;22.55;94327.63;5077453;28;20052;-47
2021/04/08 01:20:07;;;;;;;7.65;6.07;;;;;;;15.28;22.85;94332.34;5072048;28;20059;-44
2021/04/08 01:22:52;;;;;;;8.40;6.10;;;;;;;15.02;23.23;94334.28;5094990;28;20044;-43
2021/04/08 01:25:46;;;;;;;7.25;5.95;;;;;;;15.26;22.50;94339.00;5060985;28;20044;-42
2021/04/08 01:28:33;;;;;;;8.98;6.35;;;;;;;14.99;22.79;94345.44;5078490;28;20343;-43
2021/04/08 01:31:09;;;;;;;9.43;7.00;;;;;;;15.16;22.28;94349.91;5060953;28;20052;-43
2021/04/08 01:33:47;;;;;;;9.50;7.13;;;;;;;14.89;23.14;94345.78;5061017;28;20044;-43
2021/04/08 01:36:22;;;;;;;8.68;6.93;;;;;;;14.91;23.00;94346.25;5060790;28;20051;-43
2021/04/08 01:39:00;;;;;;;8.38;6.75;;;;;;;15.32;22.42;94354.31;5072151;28;20060;-47
2021/04/08 01:41:28;;;;;;;11.20;7.32;;;;;;;15.03;23.00;94346.38;5060844;28;20052;-44
2021/04/08 01:43:57;;;;;;;8.45;6.43;;;;;;;15.31;22.78;94334.34;5060693;28;20049;-44
2021/04/08 01:46:26;;;;;;;8.52;6.78;;;;;;;14.99;22.98;94340.19;5077862;28;20130;-44
2021/04/08 01:48:54;;;;;;;8.90;7.35;;;;;;;14.96;22.53;94351.34;5060218;28;20047;-42
2021/04/08 01:51:24;;;;;;;8.55;6.40;;;;;;;14.93;23.26;94347.47;5060596;28;20047;-44
2021/04/08 01:53:54;;;;;;;7.55;5.93;;;;;;;14.82;23.25;94344.38;5078242;28;20059;-44
2021/04/08 01:56:26;;;;;;;8.35;6.00;;;;;;;15.25;22.83;94346.16;5078117;28;20059;-42
2021/04/08 01:58:53;;;;;;;7.65;6.25;;;;;;;15.09;22.67;94353.00;5077455;28;20059;-42
2021/04/08 02:01:20;;;;;;;9.13;6.60;;;;;;;15.06;22.90;94357.03;5077937;28;20059;-43
2021/04/08 02:03:48;;;;;;;7.70;6.07;;;;;;;15.19;22.52;94370.34;5060490;28;20066;-43
2021/04/08 02:06:16;;;;;;;7.90;6.60;;;;;;;15.13;22.48;94372.38;5060249;28;20055;-43
2021/04/08 02:08:46;;;;;;;9.70;7.18;;;;;;;14.86;23.33;94368.25;5072607;28;20477;-42
2021/04/08 02:11:13;;;;;;;8.90;7.25;;;;;;;15.52;22.27;94365.25;5060208;28;20063;-43
2021/04/08 02:13:43;;;;;;;7.75;6.18;;;;;;;15.02;22.73;94368.50;5078131;28;20044;-43
2021/04/08 02:16:12;;;;;;;7.03;6.32;;;;;;;15.01;22.78;94377.50;5060387;28;20048;-43
2021/04/08 02:18:41;;;;;;;7.47;6.18;;;;;;;15.29;22.48;94375.25;5077265;28;20053;-44
2021/04/08 02:21:08;;;;;;;8.35;6.10;;;;;;;15.38;22.04;94382.06;5077701;28;20063;-43
2021/04/08 02:23:41;;;;;;;7.70;6.07;;;;;;;15.35;22.47;94379.25;5059146;28;20055;-45
2021/04/08 02:26:10;;;;;;;8.80;6.13;;;;;;;15.54;22.21;94384.94;5059730;28;20056;-45
2021/04/08 02:28:38;;;;;;;8.32;6.68;;;;;;;15.42;22.39;94385.59;5059607;28;20378;-52
2021/04/08 02:31:07;;;;;;;7.90;6.28;;;;;;;15.36;22.60;94388.72;5096595;28;20040;-45
2021/04/08 02:33:34;;;;;;;8.15;6.47;;;;;;;15.62;22.31;94393.94;5079917;28;20046;-43
2021/04/08 02:36:02;;;;;;;8.38;6.78;;;;;;;15.45;22.60;94389.47;5097543;28;20047;-43
2021/04/08 02:38:33;;;;;;;8.60;6.55;;;;;;;15.62;22.29;94393.94;5096825;28;20044;-43
2021/04/08 02:41:02;;;;;;;10.88;6.78;;;;;;;15.35;22.63;94398.50;5089790;28;20049;-44
2021/04/08 02:43:29;;;;;;;9.05;6.43;;;;;;;15.61;22.16;94401.06;5077180;28;20414;-43
2021/04/08 02:45:56;;;;;;;8.90;6.70;;;;;;;15.31;22.71;94389.66;5077156;28;20056;-43
2021/04/08 02:48:25;;;;;;;9.02;6.30;;;;;;;15.23;23.02;94398.34;5076973;28;20049;-43
2021/04/08 02:50:54;;;;;;;7.30;6.22;;;;;;;15.18;22.73;94401.16;5058948;28;20047;-43
2021/04/08 02:53:24;;;;;;;7.88;6.75;;;;;;;15.40;23.03;94398.31;5077063;28;20044;-42
2021/04/08 02:56:06;;;;;;;7.43;6.43;;;;;;;15.42;22.75;94401.41;5077034;28;20052;-43
2021/04/08 02:58:34;;;;;;;7.35;6.30;;;;;;;15.29;22.76;94407.63;5059153;28;20051;-42
2021/04/08 03:01:06;;;;;;;9.65;6.63;;;;;;;15.49;22.94;94411.44;5064756;28;20052;-43
2021/04/08 03:04:04;;;;;;;8.52;6.75;;;;;;;15.56;22.96;94418.84;5069165;28;20044;-44
2021/04/08 03:06:31;;;;;;;7.50;6.43;;;;;;;15.19;22.85;94428.28;5050346;28;20059;-44
2021/04/08 03:09:00;;;;;;;9.40;7.00;;;;;;;15.28;22.82;94423.75;5078771;28;20473;-43
2021/04/08 03:11:30;;;;;;;8.98;7.30;;;;;;;15.56;22.71;94422.28;5094912;28;20059;-44
2021/04/08 03:14:00;;;;;;;10.30;6.97;;;;;;;15.46;23.10;94427.88;5078959;28;20450;-43
2021/04/08 03:16:32;;;;;;;8.63;6.63;;;;;;;15.26;23.40;94418.78;5079043;28;20048;-42
2021/04/08 03:19:02;;;;;;;9.27;7.05;;;;;;;15.48;23.04;94430.22;5096247;28;20059;-43
2021/04/08 03:21:29;;;;;;;8.80;6.43;;;;;;;15.50;23.01;94430.66;5085617;28;20052;-42
2021/04/08 03:23:58;;;;;;;9.55;6.22;;;;;;;15.37;22.88;94446.38;5058860;28;20056;-42
2021/04/08 03:26:26;;;;;;;9.48;6.97;;;;;;;15.42;22.88;94448.81;5076162;28;20048;-43
2021/04/08 03:28:54;;;;;;;10.25;6.97;;;;;;;15.79;22.67;94457.09;5058559;28;20044;-43
2021/04/08 03:31:21;;;;;;;7.65;6.35;;;;;;;15.20;22.84;94462.19;5076078;28;20048;-44
2021/04/08 03:33:50;;;;;;;8.52;6.57;;;;;;;15.65;22.44;94467.09;5058486;28;20056;-45
2021/04/08 03:36:18;;;;;;;8.88;6.43;;;;;;;15.45;22.90;94468.50;5058647;28;20455;-48
2021/04/08 03:38:46;;;;;;;8.60;6.57;;;;;;;15.74;22.36;94475.72;5072618;28;20048;-42
2021/04/08 03:41:13;;;;;;;7.30;6.35;;;;;;;15.62;22.51;94473.00;5070690;28;20048;-43
2021/04/08 03:43:41;;;;;;;9.75;6.60;;;;;;;15.84;22.31;94479.88;5058292;28;20048;-44
2021/04/08 03:46:09;;;;;;;8.57;6.50;;;;;;;15.78;22.29;94492.47;5058451;28;20048;-45
2021/04/08 03:48:37;;;;;;;8.10;6.25;;;;;;;16.05;21.49;94486.00;5075783;28;20451;-43
2021/04/08 03:51:05;;;;;;;7.70;5.90;;;;;;;15.77;22.30;94495.41;5057977;28;20051;-43
2021/04/08 03:53:33;;;;;;;10.00;6.72;;;;;;;15.88;21.83;94497.41;5075908;28;20358;-43
2021/04/08 03:56:01;;;;;;;7.60;6.38;;;;;;;15.87;22.16;94490.56;5058254;28;20052;-42
2021/04/08 03:58:29;;;;;;;8.27;6.72;;;;;;;15.83;22.37;94497.56;5075576;28;20079;-42
2021/04/08 04:00:59;;;;;;;9.57;6.82;;;;;;;15.57;22.79;94507.34;5057851;28;20063;-45
2021/04/08 04:03:27;;;;;;;7.75;6.35;;;;;;;15.43;22.51;94507.56;5058068;28;20071;-44
2021/04/08 04:05:54;;;;;;;8.30;6.80;;;;;;;15.72;22.31;94507.66;5075802;28;20052;-42
2021/04/08 04:08:21;;;;;;;7.80;6.55;;;;;;;15.50;22.98;94512.34;5068977;28;20221;-43
2021/04/08 04:10:48;;;;;;;8.02;6.28;;;;;;;15.76;22.21;94515.72;5074434;28;20068;-43
2021/04/08 04:13:17;;;;;;;8.02;6.40;;;;;;;15.71;22.28;94524.56;5075448;28;20470;-42
2021/04/08 04:15:47;;;;;;;8.02;6.93;;;;;;;15.52;22.51;94520.69;5075404;28;20517;-43
2021/04/08 04:18:17;;;;;;;9.27;6.93;;;;;;;15.74;22.64;94517.91;5075272;28;20052;-43
2021/04/08 04:20:46;;;;;;;8.48;6.50;;;;;;;15.35;22.88;94527.56;5075128;28;20435;-42
2021/04/08 04:23:13;;;;;;;9.70;7.55;;;;;;;15.96;22.23;94530.88;5075209;28;20044;-43
2021/04/08 04:25:41;;;;;;;10.07;7.07;;;;;;;15.43;23.03;94539.94;5075088;28;20056;-49
2021/04/08 04:28:08;;;;;;;9.20;6.95;;;;;;;15.82;22.54;94556.63;5074850;28;20040;-44
2021/04/08 04:30:35;;;;;;;8.65;6.85;;;;;;;21.59;16.43;94563.72;5082524;28;20052;-44
2021/04/08 04:33:02;;;;;;;8.35;6.60;;;;;;;22.63;15.02;94554.53;5087937;28;20052;-41
2021/04/08 04:35:30;;;;;;;7.50;6.28;;;;;;;23.35;14.47;94559.78;5092951;28;20047;-44
2021/04/08 04:37:57;;;;;;;7.25;6.43;;;;;;;23.93;14.15;94556.66;5086226;28;20044;-53
2021/04/08 04:40:24;;;;;;;8.68;6.72;;;;;;;24.21;13.46;94564.19;5094888;28;20055;-41
2021/04/08 04:42:51;;;;;;;7.88;6.88;;;;;;;24.19;13.75;94568.34;5091231;28;20051;-45
2021/04/08 04:45:18;;;;;;;7.35;6.53;;;;;;;24.25;13.90;94569.56;5089715;28;20047;-42
2021/04/08 04:47:46;;;;;;;7.60;6.45;;;;;;;23.96;13.66;94569.28;5085271;28;20048;-42
2021/04/08 04:50:14;;;;;;;7.78;6.72;;;;;;;24.38;13.32;94572.75;5084832;28;20048;-41
2021/04/08 04:52:42;;;;;;;7.07;6.35;;;;;;;24.66;13.26;94580.22;5083691;28;20048;-41
2021/04/08 04:55:09;;;;;;;8.05;6.75;;;;;;;24.35;13.16;94574.25;5083839;28;20048;-41
2021/04/08 04:57:37;;;;;;;8.23;5.85;;;;;;;24.52;13.21;94570.22;5082755;28;20059;-42
2021/04/08 05:00:05;;;;;;;10.15;6.97;;;;;;;18.57;18.33;94568.16;5087326;28;20470;-42
2021/04/08 05:02:32;;;;;;;7.95;7.00;;;;;;;16.65;20.83;94585.97;5087202;28;20048;-43
2021/04/08 05:05:00;;;;;;;8.48;7.03;;;;;;;22.71;14.94;94584.75;5086331;28;20362;-42
2021/04/08 05:07:28;;;;;;;9.55;7.05;;;;;;;17.58;19.39;94579.59;5084162;28;20363;-39
2021/04/08 05:09:55;;;;;;;9.07;7.90;;;;;;;16.81;20.69;94588.09;5086053;28;20052;-40
2021/04/08 05:12:22;;;;;;;9.40;7.28;;;;;;;16.62;20.94;94580.53;5082878;28;20060;-41
2021/04/08 05:14:51;;;;;;;9.60;7.65;;;;;;;15.34;22.64;94583.16;5086985;28;20050;-42
2021/04/08 05:17:19;;;;;;;9.10;7.85;;;;;;;15.30;22.78;94583.00;5094418;28;20048;-41
2021/04/08 05:19:46;;;;;;;12.48;8.00;;;;;;;15.72;22.29;94583.34;5077037;28;20052;-41
2021/04/08 05:22:13;;;;;;;9.95;8.15;;;;;;;15.70;22.24;94580.22;5083543;28;20618;-42
2021/04/08 05:24:40;;;;;;;10.30;7.68;;;;;;;16.09;21.79;94595.03;5056747;28;20071;-42
2021/04/08 05:27:07;;;;;;;10.15;7.75;;;;;;;15.95;22.21;94592.59;5076348;28;20052;-41
2021/04/08 05:29:34;;;;;;;10.43;7.88;;;;;;;16.23;21.66;94592.19;5094870;28;20047;-41
2021/04/08 05:32:02;;;;;;;9.20;7.18;;;;;;;16.19;21.93;94596.56;5094524;28;20044;-41
2021/04/08 05:34:29;;;;;;;11.00;7.65;;;;;;;16.28;21.71;94594.66;5094878;28;20047;-41
2021/04/08 05:36:56;;;;;;;11.15;7.28;;;;;;;16.46;21.31;94598.78;5091686;28;20040;-41
2021/04/08 05:39:23;;;;;;;9.63;7.63;;;;;;;16.24;21.54;94599.03;5084360;28;20060;-41
2021/04/08 05:41:51;;;;;;;10.13;7.75;;;;;;;16.58;21.37;94604.16;5085409;28;20052;-41
2021/04/08 05:44:18;;;;;;;9.27;7.63;;;;;;;16.65;20.87;94612.38;5091060;28;20047;-41
2021/04/08 05:46:45;;;;;;;9.88;7.30;;;;;;;16.35;21.54;94622.09;5079382;28;20044;-42
2021/04/08 05:49:12;;;;;;;11.60;7.25;;;;;;;16.51;21.16;94603.88;5078235;28;20041;-41
2021/04/08 05:51:39;;;;;;;10.50;7.15;;;;;;;16.39;21.71;94611.69;5077925;28;20059;-42
2021/04/08 05:54:07;;;;;;;10.32;7.20;;;;;;;16.21;21.45;94607.56;5078131;28;20056;-41
2021/04/08 05:56:35;;;;;;;8.50;7.60;;;;;;;16.53;21.15;94620.19;5077995;28;20442;-42
2021/04/08 05:59:02;;;;;;;10.02;6.80;;;;;;;16.47;21.37;94624.09;5077854;28;20052;-42
2021/04/08 06:01:30;;;;;;;8.10;6.65;;;;;;;16.84;20.76;94621.78;5060218;28;20048;-42
2021/04/08 06:03:57;;;;;;;8.85;7.03;;;;;;;16.76;20.97;94620.72;5077924;28;20060;-42
2021/04/08 06:06:24;;;;;;;9.18;7.22;;;;;;;16.63;20.84;94627.72;5076816;28;20051;-41
2021/04/08 06:08:51;;;;;;;8.73;7.05;;;;;;;16.72;21.26;94625.09;5077397;28;20044;-42
2021/04/08 06:11:18;;;;;;;8.95;7.32;;;;;;;16.64;21.46;94636.44;5077535;28;20387;-41
2021/04/08 06:13:48;;;;;;;10.80;7.45;;;;;;;16.69;21.51;94638.16;5077821;28;20049;-41
2021/04/08 06:16:15;;;;;;;9.93;7.57;;;;;;;16.95;20.90;94644.09;5077557;28;20044;-42
2021/04/08 06:18:42;;;;;;;10.45;7.00;;;;;;;16.78;21.34;94644.16;5077719;28;20048;-42
2021/04/08 06:21:09;;;;;;;13.05;7.90;;;;;;;16.64;21.38;94645.13;5078677;28;20052;-41
2021/04/08 06:23:37;;;;;;;8.98;6.88;;;;;;;16.63;21.61;94650.72;5097923;28;20063;-43
2021/04/08 06:26:04;;;;;;;8.70;6.95;;;;;;;16.59;21.38;94653.22;5097713;28;20043;-43
2021/04/08 06:28:31;;;;;;;12.10;8.00;;;;;;;16.42;21.33;94658.56;5097054;28;20367;-42
2021/04/08 06:30:58;;;;;;;12.73;7.97;;;;;;;16.59;21.32;94658.50;5091063;28;20052;-42
2021/04/08 06:33:30;;;;;;;10.43;7.80;;;;;;;16.86;21.41;94661.81;5088353;28;20514;-41
2021/04/08 06:35:57;;;;;;;12.60;7.57;;;;;;;16.63;21.60;94664.69;5087742;28;20044;-41
2021/04/08 06:38:24;;;;;;;9.90;8.00;;;;;;;16.49;22.25;94658.84;5087223;28;20057;-41
2021/04/08 06:40:52;;;;;;;10.23;8.05;;;;;;;17.00;21.47;94666.91;5084976;28;20074;-41
2021/04/08 06:43:19;;;;;;;10.00;7.93;;;;;;;16.74;20.93;94670.44;5087505;28;20048;-41
2021/04/08 06:45:49;;;;;;;9.63;7.40;;;;;;;16.90;20.72;94668.78;5072746;28;20381;-43
2021/04/08 06:48:23;;;;;;;9.38;6.82;;;;;;;16.78;21.57;94665.28;5079394;28;20048;-42
2021/04/08 06:50:52;;;;;;;8.75;7.05;;;;;;;17.01;20.76;94668.44;5079424;28;20465;-43
2021/04/08 06:53:20;;;;;;;9.60;7.18;;;;;;;17.11;20.69;94670.72;5077866;28;20119;-42
2021/04/08 06:55:50;;;;;;;10.38;7.85;;;;;;;17.34;20.76;94681.78;5083510;28;20055;-43
2021/04/08 06:58:18;;;;;;;8.95;7.05;;;;;;;17.40;20.36;94680.47;5097138;28;20048;-43
2021/04/08 07:00:45;;;;;;;9.40;7.18;;;;;;;17.60;19.90;94681.59;5079395;28;20381;-43
2021/04/08 07:03:12;;;;;;;10.70;7.45;;;;;;;17.53;20.16;94695.34;5061005;28;20049;-42
2021/04/08 07:05:40;;;;;;;9.05;7.30;;;;;;;17.27;20.75;94688.34;5076886;28;20047;-43
2021/04/08 07:08:07;;;;;;;8.65;7.50;;;;;;;17.02;20.40;94697.19;5076245;28;20044;-42
2021/04/08 07:10:34;;;;;;;11.73;7.88;;;;;;;17.57;20.27;94696.25;5076756;28;20124;-42
2021/04/08 07:13:01;;;;;;;9.80;7.22;;;;;;;17.35;19.98;94696.53;5075623;28;20053;-41
2021/04/08 07:15:29;;;;;;;10.95;7.80;;;;;;;16.51;21.66;94693.63;5058896;28;20044;-41
2021/04/08 07:17:56;;;;;;;10.23;7.70;;;;;;;17.46;19.96;94695.09;5057794;28;20048;-42
2021/04/08 07:20:23;;;;;;;10.32;7.75;;;;;;;17.23;20.62;94702.53;5058878;28;20490;-42
2021/04/08 07:22:51;;;;;;;8.80;7.10;;;;;;;17.63;20.22;94710.81;5058989;28;20048;-43
2021/04/08 07:25:20;;;;;;;12.18;7.47;;;;;;;18.07;20.20;94703.34;5074559;28;20048;-41
2021/04/08 07:27:48;;;;;;;10.27;7.28;;;;;;;18.70;19.27;94693.41;5095492;28;20051;-43
2021/04/08 07:30:20;;;;;;;8.00;6.70;;;;;;;18.75;19.64;94696.63;5064893;28;20044;-42
2021/04/08 07:32:58;;;;;;;9.33;6.83;;;;;;;18.77;18.91;94698.94;5078639;28;20048;-42
2021/04/08 07:35:25;;;;;;;9.35;6.15;;;;;;;18.66;18.26;94708.41;5096420;28;20044;-42
2021/04/08 07:37:57;;;;;;;11.30;7.07;;;;;;;18.41;19.28;94704.88;5076520;28;20052;-42
2021/04/08 07:40:26;;;;;;;13.10;7.22;;;;;;;18.71;19.35;94700.25;5076069;28;20064;-42
2021/04/08 07:42:54;;;;;;;8.07;6.07;;;;;;;19.04;18.48;94708.91;5086762;28;20259;-42
2021/04/08 07:45:27;;;;;;;9.50;6.05;;;;;;;19.30;18.94;94710.44;5088750;28;20363;-41
2021/04/08 07:48:05;;;;;;;8.75;6.35;;;;;;;19.98;18.10;94702.59;5074275;28;20362;-43
2021/04/08 07:50:34;;;;;;;8.50;6.82;;;;;;;19.29;19.35;94714.19;5082212;28;20043;-42
2021/04/08 07:53:01;;;;;;;8.57;6.22;;;;;;;19.92;17.70;94717.22;5096065;28;20044;-42
2021/04/08 07:55:31;;;;;;;8.23;6.10;;;;;;;19.51;18.30;94676.59;5096223;28;20040;-42
2021/04/08 07:58:16;;;;;;;10.38;6.28;;;;;;;20.29;17.10;94704.56;5094297;28;20056;-42
2021/04/08 08:00:45;;;;;;;10.68;6.65;;;;;;;20.28;17.29;94709.09;5075689;28;20059;-41
2021/04/08 08:03:33;;;;;;;6.00;5.40;;;;;;;19.33;18.15;94715.06;5040993;28;20055;-40
2021/04/08 08:06:02;;;;;;;8.80;5.90;;;;;;;19.81;17.97;94713.50;5075405;28;20047;-41
2021/04/08 08:08:44;;;;;;;6.93;5.90;;;;;;;20.46;16.46;94714.16;5082450;28;20044;-41
2021/04/08 08:11:14;;;;;;;6.03;5.32;;;;;;;20.21;17.87;94718.75;5075542;28;20056;-41
2021/04/08 08:13:49;;;;;;;7.32;6.28;;;;;;;20.50;17.26;94717.66;5075504;28;20047;-41
2021/04/08 08:16:24;;;;;;;7.50;5.57;;;;;;;20.39;17.15;94713.94;5075369;28;20048;-42
2021/04/08 08:18:52;;;;;;;8.45;5.70;;;;;;;20.36;17.14;94719.94;5073786;28;20378;-41
2021/04/08 08:21:21;;;;;;;7.18;5.53;;;;;;;20.54;16.24;94724.59;5075354;28;20041;-42
2021/04/08 08:23:50;;;;;;;6.82;4.90;;;;;;;19.59;16.33;94718.16;5090717;28;20040;-42
2021/04/08 08:26:24;;;;;;;7.82;5.30;;;;;;;19.08;17.46;94715.09;5094042;28;20047;-42
2021/04/08 08:28:51;;;;;;;6.82;5.72;;;;;;;19.06;17.65;94721.81;5087584;28;20435;-43
2021/04/08 08:31:50;;;;;;;7.10;5.13;;;;;;;18.46;17.86;94726.63;5075433;28;20055;-43
2021/04/08 08:34:25;;;;;;;6.30;5.28;;;;;;;19.15;16.59;94717.16;5091781;28;20036;-41
2021/04/08 08:37:00;;;;;;;6.05;5.28;;;;;;;20.01;17.63;94723.91;5094756;28;20370;-42
2021/04/08 08:39:32;;;;;;;8.25;5.15;;;;;;;20.23;16.87;94719.97;5082813;28;20060;-42
2021/04/08 08:42:00;;;;;;;7.03;4.85;;;;;;;20.06;16.26;94727.47;5078369;28;20067;-42
2021/04/08 08:44:28;;;;;;;5.75;5.07;;;;;;;19.06;17.26;94727.88;5075205;28;20048;-43
2021/04/08 08:47:23;;;;;;;6.07;4.97;;;;;;;18.97;17.11;94727.19;5057236;28;20048;-42
2021/04/08 08:50:08;;;;;;;5.30;4.80;;;;;;;19.23;17.06;94729.53;5058549;28;20075;-43
2021/04/08 08:52:38;;;;;;;7.50;5.60;;;;;;;19.55;16.84;94733.22;5075155;28;20045;-42
2021/04/08 08:55:14;;;;;;;7.13;5.53;;;;;;;19.67;16.76;94727.09;5057285;28;20063;-42
2021/04/08 08:57:42;;;;;;;6.32;5.60;;;;;;;19.59;16.59;94736.75;5075178;28;20435;-43
2021/04/08 09:00:10;;;;;;;6.38;5.28;;;;;;;19.63;15.91;94732.31;5057335;28;20044;-42
2021/04/08 09:02:56;;;;;;;7.07;5.32;;;;;;;19.90;15.84;94732.69;5074884;28;20459;-40
2021/04/08 09:05:45;;;;;;;7.35;5.50;;;;;;;19.75;16.34;94738.69;5057547;28;20678;-43
2021/04/08 09:08:34;;;;;;;6.82;4.82;;;;;;;19.42;17.51;94723.69;5068866;28;20052;-43
2021/04/08 09:11:03;;;;;;;8.40;5.20;;;;;;;19.25;16.77;94729.97;5057208;28;20045;-42
2021/04/08 09:13:51;;;;;;;7.38;4.80;;;;;;;18.47;17.55;94733.47;5074978;28;20435;-42
2021/04/08 09:16:18;;;;;;;7.53;5.30;;;;;;;19.53;18.38;94730.13;5074743;28;20044;-42
2021/04/08 09:19:06;;;;;;;6.53;4.40;;;;;;;20.55;16.04;94717.41;5080127;28;20044;-43
2021/04/08 09:21:51;;;;;;;7.57;4.97;;;;;;;20.16;15.62;94711.81;5098774;28;20470;-42
2021/04/08 09:24:23;;;;;;;5.88;4.88;;;;;;;19.96;16.89;94726.81;5098745;28;20047;-42
2021/04/08 09:26:57;;;;;;;5.93;4.80;;;;;;;19.95;16.27;94730.56;5044105;28;20041;-41
2021/04/08 09:29:37;;;;;;;6.03;5.15;;;;;;;19.54;16.84;94726.38;5078784;28;20455;-41
2021/04/08 09:32:28;;;;;;;6.47;5.07;;;;;;;19.03;16.57;94733.84;5098776;28;20052;-41
2021/04/08 09:35:05;;;;;;;6.78;5.38;;;;;;;20.60;17.50;94723.28;5098373;28;20052;-43
2021/04/08 09:37:45;;;;;;;6.00;5.35;;;;;;;21.09;15.38;94727.50;5085381;28;20055;-42
2021/04/08 09:40:30;;;;;;;7.32;5.05;;;;;;;20.59;16.09;94723.63;5063892;28;20063;-42
2021/04/08 09:43:12;;;;;;;7.13;4.88;;;;;;;20.65;15.13;94724.91;5078357;28;20055;-43
2021/04/08 09:45:57;;;;;;;5.78;4.50;;;;;;;20.86;15.23;94714.81;5078444;28;20049;-43
2021/04/08 09:48:27;;;;;;;5.57;4.40;;;;;;;20.46;15.28;94712.25;5078016;28;20055;-42
2021/04/08 09:50:55;;;;;;;6.15;4.63;;;;;;;20.53;15.42;94724.94;5089330;28;20044;-42
2021/04/08 09:53:25;;;;;;;5.53;4.63;;;;;;;19.68;16.16;94726.00;5098277;28;20078;-42
2021/04/08 09:56:02;;;;;;;7.65;4.53;;;;;;;20.21;15.86;94716.88;5098275;28;20044;-42
2021/04/08 09:58:32;;;;;;;77.32;52.15;;;;;;;20.48;15.54;94725.19;5096173;28;20079;-42
2021/04/08 10:01:07;;;;;;;25.30;19.55;;;;;;;20.36;15.50;94730.56;5060384;28;20051;-43
2021/04/08 10:03:35;;;;;;;15.65;10.90;;;;;;;19.60;15.95;94730.31;5086937;28;20340;-44
2021/04/08 10:06:14;;;;;;;6.25;4.68;;;;;;;19.52;15.26;94733.84;5097996;28;20052;-44
2021/04/08 10:08:42;;;;;;;7.43;5.00;;;;;;;19.97;15.43;94738.19;5082903;28;20055;-42
2021/04/08 10:11:10;;;;;;;5.63;4.90;;;;;;;19.08;16.44;94736.28;5077818;28;20056;-42
2021/04/08 10:13:40;;;;;;;6.32;4.10;;;;;;;19.62;15.78;94730.75;5077762;28;20052;-42
2021/04/08 10:16:16;;;;;;;6.47;4.47;;;;;;;19.99;16.15;94735.97;5077729;28;20059;-43
2021/04/08 10:18:44;;;;;;;7.38;4.35;;;;;;;20.89;15.39;94735.38;5097052;28;20048;-42
2021/04/08 10:21:15;;;;;;;6.57;4.15;;;;;;;21.00;15.98;94738.28;5097717;28;20477;-42
2021/04/08 10:23:48;;;;;;;4.97;4.15;;;;;;;20.84;15.84;94727.66;5097851;28;20048;-42
2021/04/08 10:26:21;;;;;;;5.68;3.97;;;;;;;20.53;15.35;94727.59;5097660;28;20055;-42
2021/04/08 10:28:52;;;;;;;;;;;;;;;20.26;15.06;94735.22;5088038;28;20052;-42
2021/04/08 10:31:19;;;;;;;5.75;3.63;;;;;;;19.81;14.86;94737.38;5076876;28;19912;-43
2021/04/08 10:33:47;;;;;;;4.68;3.58;;;;;;;20.05;14.78;94741.84;5088491;28;20059;-43
2021/04/08 10:36:32;;;;;;;5.43;4.18;;;;;;;20.31;15.13;94735.00;5097544;28;20040;-42
2021/04/08 10:39:15;;;;;;;9.20;4.55;;;;;;;19.39;16.41;94743.69;5080018;28;20087;-43
2021/04/08 10:42:02;;;;;;;5.15;3.95;;;;;;;19.63;16.40;94756.19;5077880;28;20068;-41
2021/04/08 10:44:32;;;;;;;4.53;3.90;;;;;;;19.53;16.80;94753.97;5097521;28;20050;-42
2021/04/08 10:47:01;;;;;;;6.55;4.30;;;;;;;19.69;16.39;94759.38;5097140;28;20074;-43
2021/04/08 10:49:30;;;;;;;5.43;4.35;;;;;;;19.30;16.13;94758.94;5082585;28;20056;-42
2021/04/08 10:52:03;;;;;;;5.75;4.70;;;;;;;19.80;16.14;94757.03;5077152;28;20063;-42
2021/04/08 10:54:33;;;;;;;5.57;4.15;;;;;;;19.63;16.97;94756.19;5077208;28;20052;-43
2021/04/08 10:57:01;;;;;;;6.97;4.70;;;;;;;20.23;16.63;94754.47;5076785;28;20048;-43
2021/04/08 10:59:29;;;;;;;8.15;5.50;;;;;;;20.62;15.84;94752.91;5078420;28;20047;-42
2021/04/08 11:02:01;;;;;;;6.97;5.05;;;;;;;20.63;14.81;94754.47;5096913;28;20044;-42
2021/04/08 11:04:28;;;;;;;8.88;5.45;;;;;;;20.70;15.26;94753.88;5097224;28;20055;-43
2021/04/08 11:06:57;;;;;;;6.47;4.70;;;;;;;21.14;16.68;94748.50;5078971;28;20051;-41
2021/04/08 11:09:26;;;;;;;6.28;4.95;;;;;;;21.04;14.30;94747.13;5089674;28;20048;-42
2021/04/08 11:11:54;;;;;;;8.02;5.40;;;;;;;21.81;14.20;94746.63;5086398;28;20071;-42
2021/04/08 11:14:31;;;;;;;6.45;4.63;;;;;;;21.28;13.50;94738.22;5076682;28;20049;-42
2021/04/08 11:16:58;;;;;;;5.85;4.10;;;;;;;20.90;14.84;94752.88;5075384;28;20367;-42
2021/04/08 11:19:26;;;;;;;5.32;4.13;;;;;;;21.71;14.51;94752.50;5074877;28;20051;-43
2021/04/08 11:21:54;;;;;;;4.53;3.85;;;;;;;21.28;14.34;94748.84;5079144;28;20044;-43
2021/04/08 11:24:21;;;;;;;4.15;3.03;;;;;;;21.43;12.76;94753.41;5076537;28;20048;-43
2021/04/08 11:26:49;;;;;;;4.20;3.13;;;;;;;21.19;13.39;94753.56;5058659;28;20040;-44
2021/04/08 11:29:25;;;;;;;5.88;3.70;;;;;;;21.00;14.43;94764.88;5076370;28;20063;-43
2021/04/08 11:32:12;;;;;;;4.85;3.17;;;;;;;21.23;14.39;94765.03;5095704;28;20078;-42
2021/04/08 11:34:59;;;;;;;4.82;2.80;;;;;;;19.66;15.40;94760.81;5075187;28;20040;-43
2021/04/08 11:37:37;;;;;;;4.35;2.95;;;;;;;19.93;14.83;94769.16;5075383;28;20051;-44
2021/04/08 11:40:06;;;;;;;4.45;3.03;;;;;;;18.76;15.68;94776.84;5075935;28;20049;-42
2021/04/08 11:42:39;;;;;;;6.97;3.80;;;;;;;18.49;17.85;94773.66;5069008;28;20052;-42
2021/04/08 11:45:29;;;;;;;8.88;4.38;;;;;;;19.26;16.82;94773.19;5096110;28;20824;-43
2021/04/08 11:48:04;;;;;;;6.47;4.85;;;;;;;19.86;16.68;94768.97;5094957;28;20442;-41